Time;durP1;ratioP1;P1;durP2;ratioP2;P2;SDS_P1;SDS_P2;PMS_P1;PMS_P2;Temp;Humidity;BMP_temperature;BMP_pressure;BME280_temperature;BME280_humidity;BME280_pressure;Samples;Min_cycle;Max_cycle;Signal;HPM_P1;HPM_P2
2023/06/27 00:01:06;;;;;;;4.15;2.70;;;;;;;18.63;68.46;101798.03;5087814;28;20036;-83
2023/06/27 00:03:33;;;;;;;5.18;2.40;;;;;;;18.57;69.30;101800.47;5091911;28;20032;-83
2023/06/27 00:06:00;;;;;;;2.83;1.73;;;;;;;18.56;68.97;101804.53;5093239;28;20040;-83
2023/06/27 00:08:29;;;;;;;2.88;2.30;;;;;;;18.18;70.76;101798.59;5065887;28;20104;-83
2023/06/27 00:10:55;;;;;;;3.50;1.75;;;;;;;18.47;69.61;101796.47;5089139;28;20035;-83
2023/06/27 00:13:20;;;;;;;5.53;2.03;;;;;;;18.51;68.94;101804.16;5077295;28;20035;-83
2023/06/27 00:15:52;;;;;;;2.95;1.90;;;;;;;18.29;70.96;101790.84;5078375;28;20102;-84
2023/06/27 00:18:21;;;;;;;4.13;2.20;;;;;;;18.45;69.94;101798.13;5066540;28;20047;-83
2023/06/27 00:20:50;;;;;;;2.53;2.33;;;;;;;18.54;69.88;101800.50;5076097;28;20084;-83
2023/06/27 00:23:27;;;;;;;2.97;2.22;;;;;;;18.46;70.73;101799.72;5066703;28;20023;-83
2023/06/27 00:25:52;;;;;;;2.67;1.90;;;;;;;18.39;70.56;101797.72;5089975;28;20042;-83
2023/06/27 00:28:18;;;;;;;5.10;2.40;;;;;;;18.46;70.46;101799.72;5084188;28;20043;-82
2023/06/27 00:30:43;;;;;;;7.55;2.47;;;;;;;18.48;69.84;101797.28;5080006;28;20070;-83
2023/06/27 00:33:09;;;;;;;4.78;2.63;;;;;;;18.12;71.83;101802.25;5091441;28;20456;-83
2023/06/27 00:35:36;;;;;;;3.15;1.90;;;;;;;18.26;71.71;101799.41;5078895;28;20027;-83
2023/06/27 00:38:02;;;;;;;6.47;2.58;;;;;;;18.14;72.33;101794.16;5085777;28;20530;-83
2023/06/27 00:40:28;;;;;;;2.92;1.88;;;;;;;18.27;71.85;101792.50;5079897;28;20038;-83
2023/06/27 00:42:53;;;;;;;4.45;2.03;;;;;;;18.38;71.58;101786.78;5083728;28;20047;-83
2023/06/27 00:45:22;;;;;;;7.82;2.42;;;;;;;18.27;72.54;101793.28;5086630;28;20035;-83
2023/06/27 00:47:47;;;;;;;3.47;1.92;;;;;;;18.33;71.79;101793.69;5068078;28;20031;-83
2023/06/27 00:50:13;;;;;;;3.90;2.00;;;;;;;18.41;71.10;101786.78;5090399;28;20038;-83
2023/06/27 00:52:39;;;;;;;5.13;2.63;;;;;;;18.11;73.13;101790.13;5082716;28;20085;-83
2023/06/27 00:55:06;;;;;;;9.75;3.33;;;;;;;18.28;72.84;101774.28;5088079;28;20024;-83
2023/06/27 00:57:32;;;;;;;5.00;2.00;;;;;;;18.39;72.68;101789.22;5080222;28;20459;-83
2023/06/27 00:59:58;;;;;;;5.15;3.38;;;;;;;17.85;76.52;101782.88;5076372;28;20053;-83
2023/06/27 01:02:23;;;;;;;6.80;2.60;;;;;;;18.07;73.89;101790.13;5072291;28;20028;-83
2023/06/27 01:04:50;;;;;;;4.75;3.17;;;;;;;18.11;74.54;101789.28;5074466;28;20121;-83
2023/06/27 01:07:56;;;;;;;6.95;2.35;;;;;;;18.10;73.52;101791.31;5081213;28;20128;-83
2023/06/27 01:10:29;;;;;;;4.03;2.05;;;;;;;18.11;74.83;101786.47;5016292;28;20857;-83
2023/06/27 01:13:00;;;;;;;5.30;2.80;;;;;;;18.16;73.93;101788.88;5068866;28;20585;-83
2023/06/27 01:15:26;;;;;;;6.30;2.40;;;;;;;18.11;75.07;101789.28;5081063;28;20036;-83
2023/06/27 01:17:52;;;;;;;6.97;2.38;;;;;;;18.11;73.37;101784.44;5088047;28;20110;-83
2023/06/27 01:20:19;;;;;;;5.95;2.40;;;;;;;18.19;73.71;101791.69;5068441;28;20024;-83
2023/06/27 01:22:53;;;;;;;17.90;3.85;;;;;;;18.08;75.34;101797.38;5076293;28;20080;-83
2023/06/27 01:25:18;;;;;;;12.25;3.22;;;;;;;17.81;77.26;101793.34;5087119;28;20036;-83
2023/06/27 01:27:44;;;;;;;8.55;2.88;;;;;;;17.82;77.10;101792.16;5093877;28;20039;-83
2023/06/27 01:30:10;;;;;;;5.30;2.92;;;;;;;17.86;77.07;101793.78;5093895;28;20483;-83
2023/06/27 01:32:46;;;;;;;4.50;2.60;;;;;;;17.87;76.89;101786.09;5090348;28;20444;-84
2023/06/27 01:35:19;;;;;;;11.52;3.42;;;;;;;17.84;76.54;101778.44;5097759;28;20106;-83
2023/06/27 01:37:53;;;;;;;5.72;2.70;;;;;;;17.94;77.46;101793.78;5068943;28;20032;-83
2023/06/27 01:40:20;;;;;;;7.18;2.90;;;;;;;17.75;78.23;101792.97;5098554;28;20066;-83
2023/06/27 01:42:59;;;;;;;5.20;3.30;;;;;;;17.81;79.12;101782.03;5089480;28;20054;-84
2023/06/27 01:45:25;;;;;;;12.75;3.13;;;;;;;17.70;79.21;101784.06;5090450;28;20035;-83
2023/06/27 01:47:51;;;;;;;8.00;4.30;;;;;;;17.42;82.94;101783.66;5091347;28;20483;-83
2023/06/27 01:50:17;;;;;;;9.63;3.92;;;;;;;17.69;79.17;101788.94;5094459;28;20023;-83
2023/06/27 01:52:43;;;;;;;7.50;3.67;;;;;;;17.69;79.11;101777.59;5091101;28;20101;-83
2023/06/27 01:55:09;;;;;;;10.38;3.65;;;;;;;17.61;80.11;101779.63;5092469;28;20528;-83
2023/06/27 01:57:35;;;;;;;6.78;3.20;;;;;;;17.73;79.77;101780.41;5094861;28;20032;-83
2023/06/27 02:00:00;;;;;;;5.88;3.20;;;;;;;17.68;80.73;101778.81;5084152;28;20059;-83
2023/06/27 02:02:26;;;;;;;8.98;3.80;;;;;;;17.56;81.06;101782.88;5090973;28;20027;-83
2023/06/27 02:04:51;;;;;;;6.05;3.45;;;;;;;17.60;80.44;101775.19;5081671;28;20050;-83
2023/06/27 02:07:16;;;;;;;5.90;3.10;;;;;;;17.79;80.36;101773.97;5090609;28;20038;-83
2023/06/27 02:09:42;;;;;;;9.15;3.67;;;;;;;17.50;83.44;101767.50;5068805;28;20352;-83
2023/06/27 02:12:09;;;;;;;8.00;3.65;;;;;;;17.46;83.52;101775.97;5072531;28;20032;-83
2023/06/27 02:14:35;;;;;;;5.75;3.47;;;;;;;17.64;80.52;101772.34;5086147;28;20636;-83
2023/06/27 02:17:00;;;;;;;7.43;4.00;;;;;;;17.65;80.65;101771.13;5078897;28;20065;-83
2023/06/27 02:19:26;;;;;;;7.35;3.70;;;;;;;17.62;81.17;101769.91;5093820;28;20031;-83
2023/06/27 02:21:51;;;;;;;6.60;4.40;;;;;;;17.71;81.55;101774.34;5084295;28;20120;-83
2023/06/27 02:24:16;;;;;;;8.60;3.03;;;;;;;17.63;81.31;101774.38;5090501;28;20483;-83
2023/06/27 02:26:43;;;;;;;10.55;4.28;;;;;;;17.75;81.07;101766.66;5091928;28;20034;-83
2023/06/27 02:29:08;;;;;;;6.25;3.78;;;;;;;17.77;81.13;101776.38;5068611;28;20031;-83
2023/06/27 02:31:34;;;;;;;10.55;3.72;;;;;;;17.61;82.15;101762.63;5084843;28;20131;-83
2023/06/27 02:34:01;;;;;;;7.35;3.88;;;;;;;17.56;83.46;101771.53;5086701;28;21502;-83
2023/06/27 02:36:27;;;;;;;8.38;4.47;;;;;;;17.35;85.49;101768.69;5090324;28;20035;-83
2023/06/27 02:38:56;;;;;;;5.85;4.35;;;;;;;17.58;81.83;101765.47;5080517;28;20476;-83
2023/06/27 02:41:22;;;;;;;8.43;3.97;;;;;;;17.59;83.45;101770.72;5088939;28;20096;-83
2023/06/27 02:43:47;;;;;;;7.10;4.00;;;;;;;17.70;81.80;101767.09;5083449;28;20030;-83
2023/06/27 02:46:13;;;;;;;7.57;4.00;;;;;;;17.68;83.31;101773.13;5084760;28;21161;-83
2023/06/27 02:48:38;;;;;;;7.30;3.95;;;;;;;17.46;85.12;101773.16;5072689;28;20582;-83
2023/06/27 02:51:04;;;;;;;5.70;3.30;;;;;;;17.53;83.07;101771.53;5088591;28;20043;-82
2023/06/27 02:53:29;;;;;;;7.05;3.78;;;;;;;17.62;82.13;101769.91;5092172;28;20484;-82
2023/06/27 02:55:57;;;;;;;16.08;4.97;;;;;;;17.60;83.27;101778.03;5085325;28;20154;-82
2023/06/27 02:58:23;;;;;;;10.50;4.97;;;;;;;17.37;87.41;101775.59;5091605;28;20468;-82
2023/06/27 03:00:48;;;;;;;9.07;3.85;;;;;;;17.30;85.49;101775.56;5084621;28;20043;-82
2023/06/27 03:03:13;;;;;;;10.68;3.72;;;;;;;17.47;83.82;101773.94;5068743;28;21208;-82
2023/06/27 03:05:39;;;;;;;6.60;3.47;;;;;;;17.58;83.63;101768.28;5087925;28;20039;-82
2023/06/27 03:08:04;;;;;;;11.23;4.15;;;;;;;17.64;84.59;101778.00;5080851;28;20444;-82
2023/06/27 03:10:30;;;;;;;9.30;4.25;;;;;;;17.48;84.02;101770.72;5091107;28;20264;-82
2023/06/27 03:12:55;;;;;;;9.07;4.68;;;;;;;17.30;85.60;101774.75;5080812;28;20032;-82
2023/06/27 03:15:20;;;;;;;7.85;4.38;;;;;;;17.36;85.53;101778.81;5089753;28;20336;-82
2023/06/27 03:17:46;;;;;;;14.68;4.95;;;;;;;17.58;84.59;101779.59;5084585;28;20924;-82
2023/06/27 03:20:11;;;;;;;5.82;3.92;;;;;;;17.71;84.88;101782.84;5089992;28;20114;-82
2023/06/27 03:22:37;;;;;;;10.00;3.83;;;;;;;17.59;83.87;101781.25;5093863;28;20061;-82
2023/06/27 03:25:02;;;;;;;8.98;3.90;;;;;;;17.76;82.85;101790.94;5090299;28;20028;-82
2023/06/27 03:27:28;;;;;;;10.23;3.92;;;;;;;17.46;85.94;101778.00;5094665;28;20539;-82
2023/06/27 03:29:53;;;;;;;7.90;4.10;;;;;;;17.71;83.24;101786.50;5088936;28;20062;-83
2023/06/27 03:32:18;;;;;;;7.03;4.25;;;;;;;17.59;84.46;101784.06;5090245;28;20593;-82
2023/06/27 03:34:44;;;;;;;7.47;3.55;;;;;;;17.57;84.89;101783.66;5086967;28;20037;-84
2023/06/27 03:37:09;;;;;;;8.13;4.18;;;;;;;17.54;84.25;101784.47;5092774;28;20524;-84
2023/06/27 03:39:35;;;;;;;7.03;4.40;;;;;;;17.63;85.09;101782.84;5087471;28;20130;-84
2023/06/27 03:42:00;;;;;;;9.65;4.30;;;;;;;17.48;86.04;101775.59;5085064;28;20032;-84
2023/06/27 03:44:28;;;;;;;7.28;3.97;;;;;;;17.47;89.66;101785.28;5091205;28;20494;-84
2023/06/27 03:46:53;;;;;;;8.02;4.20;;;;;;;17.45;86.14;101782.84;5085177;28;20035;-84
2023/06/27 03:49:19;;;;;;;9.23;5.47;;;;;;;17.46;89.66;101789.34;5095804;28;20028;-84
2023/06/27 03:51:46;;;;;;;7.95;4.30;;;;;;;17.30;89.89;101784.06;5095348;28;20035;-84
2023/06/27 03:54:11;;;;;;;7.72;4.60;;;;;;;17.49;87.47;101785.69;5088719;28;20073;-84
2023/06/27 03:56:37;;;;;;;6.63;4.70;;;;;;;17.42;87.58;101780.84;5091055;28;20028;-84
2023/06/27 03:59:02;;;;;;;9.70;3.65;;;;;;;17.54;86.13;101778.81;5099602;28;20039;-84
2023/06/27 04:01:27;;;;;;;9.18;4.10;;;;;;;17.63;86.10;101777.19;5091274;28;20023;-84
2023/06/27 04:03:53;;;;;;;7.25;4.70;;;;;;;17.55;85.74;101786.91;5073999;28;20032;-84
2023/06/27 04:06:18;;;;;;;10.13;5.45;;;;;;;17.73;83.45;101789.75;5091628;28;20402;-83
2023/06/27 04:08:44;;;;;;;10.02;4.88;;;;;;;17.42;89.38;101782.84;5076807;28;20032;-84
2023/06/27 04:11:09;;;;;;;9.40;4.57;;;;;;;17.32;90.16;101778.81;5088186;28;20403;-84
2023/06/27 04:13:35;;;;;;;8.32;4.28;;;;;;;17.53;87.16;101782.84;5079119;28;20031;-83
2023/06/27 04:16:00;;;;;;;10.82;5.35;;;;;;;17.42;87.59;101777.19;5073221;28;20032;-84
2023/06/27 04:18:26;;;;;;;6.07;3.95;;;;;;;17.51;89.08;101771.94;5082041;28;21172;-84
2023/06/27 04:20:51;;;;;;;9.90;4.40;;;;;;;17.60;86.07;101775.19;5084857;28;20031;-84
2023/06/27 04:23:16;;;;;;;8.00;4.05;;;;;;;17.24;90.34;101778.00;5073935;28;20569;-84
2023/06/27 04:25:44;;;;;;;7.70;4.70;;;;;;;17.54;86.23;101773.97;5080556;28;20027;-83
2023/06/27 04:28:09;;;;;;;5.97;3.67;;;;;;;17.56;86.63;101777.22;5089814;28;20455;-84
2023/06/27 04:30:35;;;;;;;6.50;4.18;;;;;;;17.63;85.02;101784.88;5082541;28;20034;-83
2023/06/27 04:33:03;;;;;;;8.63;4.50;;;;;;;17.51;85.92;101780.44;5083018;28;20039;-83
2023/06/27 04:35:28;;;;;;;7.60;4.95;;;;;;;17.02;93.04;101779.97;5086624;28;20038;-83
2023/06/27 04:37:54;;;;;;;7.60;4.50;;;;;;;17.13;89.56;101777.16;5071784;28;20032;-83
2023/06/27 04:40:20;;;;;;;10.48;4.20;;;;;;;17.27;90.73;101780.00;5092051;28;20391;-83
2023/06/27 04:42:45;;;;;;;8.40;5.45;;;;;;;17.60;88.48;101783.69;5086214;28;20046;-83
2023/06/27 04:45:14;;;;;;;6.10;3.88;;;;;;;17.76;86.06;101791.75;5087156;28;20047;-83
2023/06/27 04:47:40;;;;;;;6.25;4.05;;;;;;;17.75;85.82;101787.31;5066365;28;20031;-84
2023/06/27 04:50:06;;;;;;;11.07;4.55;;;;;;;17.88;84.78;101782.88;5086979;28;20469;-84
2023/06/27 04:52:32;;;;;;;9.40;4.25;;;;;;;17.86;84.79;101785.28;5087111;28;20081;-84
2023/06/27 04:54:57;;;;;;;8.95;3.92;;;;;;;17.83;84.97;101785.28;5085704;28;20027;-83
2023/06/27 04:57:22;;;;;;;7.88;4.30;;;;;;;17.90;85.72;101778.81;5075564;28;20490;-83
2023/06/27 04:59:48;;;;;;;8.95;3.85;;;;;;;17.98;84.09;101784.06;5089669;28;20032;-83
2023/06/27 05:02:13;;;;;;;5.85;3.92;;;;;;;17.82;85.63;101790.16;5090001;28;20039;-83
2023/06/27 05:04:39;;;;;;;9.43;4.50;;;;;;;17.59;88.43;101784.06;5087003;28;20046;-83
2023/06/27 05:07:04;;;;;;;7.25;3.88;;;;;;;17.68;87.22;101785.25;5092260;28;20495;-83
2023/06/27 05:09:30;;;;;;;10.10;3.78;;;;;;;17.79;86.45;101784.44;5093306;28;20047;-83
2023/06/27 05:11:55;;;;;;;8.20;4.43;;;;;;;17.84;88.07;101787.72;5089475;28;20054;-84
2023/06/27 05:14:21;;;;;;;7.82;3.55;;;;;;;18.04;85.03;101782.41;5089707;28;20065;-83
2023/06/27 05:16:46;;;;;;;8.77;3.97;;;;;;;17.98;87.71;101789.75;5087607;28;20019;-83
2023/06/27 05:19:14;;;;;;;8.23;4.45;;;;;;;17.97;88.19;101781.66;5091942;28;20032;-83
2023/06/27 05:21:39;;;;;;;7.82;3.97;;;;;;;18.02;87.39;101782.03;5080963;28;20566;-83
2023/06/27 05:24:05;;;;;;;5.85;4.30;;;;;;;18.04;85.76;101782.41;5090119;28;20031;-83
2023/06/27 05:26:34;;;;;;;7.95;4.57;;;;;;;18.01;87.49;101785.28;5077609;28;20019;-83
2023/06/27 05:29:00;;;;;;;6.25;3.83;;;;;;;18.16;85.47;101780.38;5088297;28;20043;-83
2023/06/27 05:31:26;;;;;;;5.57;3.30;;;;;;;18.32;82.65;101775.09;5087891;28;20606;-82
2023/06/27 05:33:52;;;;;;;6.45;3.15;;;;;;;18.49;80.14;101781.91;5087607;28;20441;-82
2023/06/27 05:36:17;;;;;;;9.60;3.78;;;;;;;18.49;85.48;101787.56;5085442;28;20035;-83
2023/06/27 05:38:43;;;;;;;6.38;3.67;;;;;;;18.30;87.63;101780.34;5085724;28;20058;-82
2023/06/27 05:41:08;;;;;;;5.70;3.25;;;;;;;18.46;80.84;101783.50;5093870;28;20035;-83
2023/06/27 05:43:33;;;;;;;9.25;4.13;;;;;;;18.52;81.45;101785.94;5089043;28;20032;-83
2023/06/27 05:45:59;;;;;;;7.05;3.17;;;;;;;18.71;83.37;101793.94;5094909;28;20050;-83
2023/06/27 05:48:24;;;;;;;6.90;3.40;;;;;;;18.81;83.84;101787.44;5084465;28;20030;-82
2023/06/27 05:50:50;;;;;;;6.88;3.75;;;;;;;18.72;85.60;101781.41;5095334;28;20555;-83
2023/06/27 05:53:15;;;;;;;9.57;4.40;;;;;;;18.64;83.51;101774.16;5093368;28;20024;-82
2023/06/27 05:55:40;;;;;;;13.82;3.60;;;;;;;18.78;82.87;101785.44;5090960;28;20590;-82
2023/06/27 05:58:06;;;;;;;6.22;2.70;;;;;;;18.93;79.51;101789.03;5092312;28;20035;-83
2023/06/27 06:00:31;;;;;;;4.47;3.03;;;;;;;19.08;79.79;101784.88;5094079;28;20029;-83
2023/06/27 06:02:57;;;;;;;4.15;2.58;;;;;;;19.59;79.35;101782.47;5084190;28;20031;-83
2023/06/27 06:05:22;;;;;;;7.65;2.63;;;;;;;19.27;81.69;101780.69;5074154;28;20092;-83
2023/06/27 06:07:47;;;;;;;7.88;2.63;;;;;;;19.39;76.74;101798.44;5091023;28;20059;-83
2023/06/27 06:10:13;;;;;;;6.28;2.70;;;;;;;19.85;75.89;101788.75;5092014;28;20078;-81
2023/06/27 06:12:38;;;;;;;5.68;2.92;;;;;;;20.50;77.42;101791.69;5096804;28;20464;-78
2023/06/27 06:15:05;;;;;;;7.25;2.92;;;;;;;20.82;72.64;101791.31;5096070;28;20376;-75
2023/06/27 06:17:30;;;;;;;2.85;2.58;;;;;;;20.75;76.45;101797.09;5097194;28;20407;-75
2023/06/27 06:19:55;;;;;;;5.57;2.55;;;;;;;20.82;72.91;101794.16;5106796;28;20038;-75
2023/06/27 06:22:21;;;;;;;6.25;3.00;;;;;;;20.44;75.46;101802.72;5085060;28;20011;-75
2023/06/27 06:24:46;;;;;;;8.80;2.97;;;;;;;21.00;73.39;101802.47;5096094;28;20019;-76
2023/06/27 06:27:12;;;;;;;5.93;2.22;;;;;;;20.99;72.52;101803.69;5085487;28;20043;-76
2023/06/27 06:29:37;;;;;;;4.28;2.20;;;;;;;20.86;70.96;101803.44;5080478;28;20476;-76
2023/06/27 06:32:03;;;;;;;5.82;2.92;;;;;;;20.09;75.39;101801.91;5100457;28;20024;-75
2023/06/27 06:34:28;;;;;;;3.60;2.47;;;;;;;20.50;75.16;101806.72;5097475;28;20031;-75
2023/06/27 06:36:54;;;;;;;5.78;2.38;;;;;;;21.05;70.98;101815.41;5097414;28;20027;-77
2023/06/27 06:39:20;;;;;;;4.28;2.50;;;;;;;20.60;73.88;101812.75;5079637;28;20027;-77
2023/06/27 06:41:45;;;;;;;4.00;2.55;;;;;;;20.77;73.40;101806.03;5100973;28;20590;-77
2023/06/27 06:44:11;;;;;;;3.30;2.15;;;;;;;20.43;74.05;101818.19;5094962;28;20024;-77
2023/06/27 06:46:37;;;;;;;3.10;2.00;;;;;;;21.01;72.73;101814.63;5085020;28;20035;-77
2023/06/27 06:49:03;;;;;;;5.95;2.33;;;;;;;20.71;72.56;101816.25;5095916;28;20016;-77
2023/06/27 06:51:28;;;;;;;9.35;2.47;;;;;;;20.70;73.00;101823.16;5102169;28;20551;-78
2023/06/27 06:53:54;;;;;;;5.88;2.55;;;;;;;20.79;72.76;101820.63;5105848;28;20506;-77
2023/06/27 06:56:19;;;;;;;6.85;2.70;;;;;;;21.43;71.71;101818.91;5097932;28;20058;-77
2023/06/27 06:58:44;;;;;;;5.32;2.65;;;;;;;21.86;71.01;101823.09;5107344;28;20091;-77
2023/06/27 07:01:10;;;;;;;4.25;2.33;;;;;;;22.09;69.90;101825.94;5095450;28;20024;-77
2023/06/27 07:03:35;;;;;;;3.50;2.22;;;;;;;21.88;71.00;101826.31;5094367;28;20779;-77
2023/06/27 07:06:00;;;;;;;4.47;2.20;;;;;;;22.16;69.84;101829.88;5107693;28;20545;-77
2023/06/27 07:08:26;;;;;;;3.22;2.00;;;;;;;22.34;68.60;101818.97;5084737;28;20086;-77
2023/06/27 07:10:51;;;;;;;3.53;2.10;;;;;;;22.38;68.55;101825.41;5099777;28;20044;-77
2023/06/27 07:13:16;;;;;;;9.05;2.95;;;;;;;22.34;68.30;101821.84;5085636;28;20028;-78
2023/06/27 07:15:42;;;;;;;7.03;2.50;;;;;;;22.37;68.17;101820.16;5082034;28;20118;-77
2023/06/27 07:18:08;;;;;;;5.82;2.55;;;;;;;22.46;67.96;101821.19;5096656;28;20463;-77
2023/06/27 07:20:33;;;;;;;8.07;2.63;;;;;;;22.46;67.78;101815.47;5079916;28;20035;-77
2023/06/27 07:22:58;;;;;;;4.93;1.70;;;;;;;22.48;67.83;101824.41;5095916;28;20036;-78
2023/06/27 07:25:24;;;;;;;4.20;2.00;;;;;;;22.45;67.45;101822.44;5094881;28;20031;-77
2023/06/27 07:27:50;;;;;;;2.47;1.88;;;;;;;22.56;66.46;101822.22;5095821;28;20036;-78
2023/06/27 07:30:15;;;;;;;6.68;2.30;;;;;;;22.61;66.60;101827.41;5081350;28;20485;-78
2023/06/27 07:32:41;;;;;;;5.95;2.83;;;;;;;22.35;65.70;101823.47;5099662;28;20630;-77
2023/06/27 07:35:07;;;;;;;10.68;1.95;;;;;;;22.43;65.92;101826.94;5105010;28;20035;-77
2023/06/27 07:37:32;;;;;;;3.22;1.70;;;;;;;22.49;65.02;101826.03;5096159;28;20071;-77
2023/06/27 07:39:58;;;;;;;5.40;1.80;;;;;;;22.44;64.76;101829.38;5102650;28;20024;-78
2023/06/27 07:42:24;;;;;;;4.32;1.80;;;;;;;21.43;65.76;101823.81;5098135;28;20032;-78
2023/06/27 07:44:49;;;;;;;2.63;1.45;;;;;;;21.30;66.17;101827.22;5081787;28;20258;-78
2023/06/27 07:47:15;;;;;;;2.97;1.20;;;;;;;21.04;67.36;101816.63;5102804;28;20023;-77
2023/06/27 07:49:40;;;;;;;1.23;1.13;;;;;;;20.86;67.30;101811.97;5082628;28;20493;-77
2023/06/27 07:52:07;;;;;;;2.65;1.15;;;;;;;21.05;67.38;101815.41;5078883;28;20023;-77
2023/06/27 07:54:33;;;;;;;5.38;2.28;;;;;;;20.80;66.29;101827.91;5098105;28;20128;-77
2023/06/27 07:56:58;;;;;;;5.00;1.30;;;;;;;20.97;65.46;101811.03;5096451;28;20265;-77
2023/06/27 07:59:24;;;;;;;3.70;1.27;;;;;;;21.02;66.35;101817.06;5102026;28;20023;-77
2023/06/27 08:01:49;;;;;;;2.45;0.82;;;;;;;20.88;65.30;101811.56;5081362;28;20034;-77
2023/06/27 08:04:15;;;;;;;2.83;1.08;;;;;;;20.92;64.08;101818.81;5100570;28;20027;-77
2023/06/27 08:06:41;;;;;;;2.20;1.90;;;;;;;20.82;63.76;101825.44;5080079;28;20027;-77
2023/06/27 08:09:07;;;;;;;3.13;1.50;;;;;;;21.03;63.84;101820.72;5098739;28;20359;-77
2023/06/27 08:11:32;;;;;;;2.50;1.10;;;;;;;20.91;64.29;101822.91;5092398;28;20404;-77
2023/06/27 08:13:57;;;;;;;5.65;1.58;;;;;;;20.85;62.32;101830.31;5096444;28;20383;-75
2023/06/27 08:16:23;;;;;;;2.63;1.48;;;;;;;20.81;61.69;101835.22;5091941;28;20087;-76
2023/06/27 08:18:48;;;;;;;2.58;1.27;;;;;;;20.78;61.96;101833.22;5078227;28;20034;-76
2023/06/27 08:21:13;;;;;;;2.95;1.08;;;;;;;20.89;60.37;101828.22;5094096;28;20476;-75
2023/06/27 08:23:39;;;;;;;2.97;1.33;;;;;;;20.87;61.29;101816.47;5097175;28;20031;-75
2023/06/27 08:26:04;;;;;;;14.18;2.10;;;;;;;20.82;59.80;101825.44;5100262;28;20027;-75
2023/06/27 08:28:30;;;;;;;4.93;1.70;;;;;;;20.90;58.34;101826.97;5093572;28;20095;-76
2023/06/27 08:30:56;;;;;;;4.47;1.23;;;;;;;20.78;58.03;101830.38;5093966;28;20106;-75
2023/06/27 08:33:22;;;;;;;2.53;1.38;;;;;;;21.06;59.28;101831.22;5097737;28;20502;-75
2023/06/27 08:35:48;;;;;;;4.70;1.25;;;;;;;21.14;58.80;101829.09;5097177;28;20028;-76
2023/06/27 08:38:14;;;;;;;1.95;0.70;;;;;;;20.98;59.78;101824.03;5096712;28;20039;-75
2023/06/27 08:40:42;;;;;;;1.45;0.80;;;;;;;21.01;58.13;101828.88;5088829;28;20031;-76
2023/06/27 08:43:10;;;;;;;3.92;1.20;;;;;;;20.98;58.20;101833.38;5097243;28;20016;-76
2023/06/27 08:45:37;;;;;;;1.55;0.80;;;;;;;20.92;56.64;101823.72;5093614;28;20037;-76
2023/06/27 08:48:06;;;;;;;4.03;1.35;;;;;;;21.06;56.36;101834.06;5102991;28;20110;-77
2023/06/27 08:50:34;;;;;;;2.78;1.00;;;;;;;21.14;56.47;101831.94;5079306;28;20020;-76
2023/06/27 08:53:04;;;;;;;3.45;1.88;;;;;;;21.19;56.88;101825.75;5092083;28;20055;-76
2023/06/27 08:55:44;;;;;;;4.57;1.35;;;;;;;21.26;56.14;101809.38;5089831;28;20038;-77
2023/06/27 08:58:14;;;;;;;2.90;1.10;;;;;;;21.17;54.64;101816.88;5098494;28;20483;-77
2023/06/27 09:00:41;;;;;;;3.33;1.00;;;;;;;21.29;57.25;101814.22;5097229;28;20027;-76
2023/06/27 09:03:07;;;;;;;5.47;1.30;;;;;;;21.51;55.87;101813.91;5095115;28;20020;-76
2023/06/27 09:05:36;;;;;;;1.98;0.82;;;;;;;21.59;55.33;101818.28;5098632;28;20027;-77
2023/06/27 09:08:01;;;;;;;2.67;1.75;;;;;;;21.53;53.72;101820.00;5094649;28;20476;-77
2023/06/27 09:10:28;;;;;;;3.72;1.30;;;;;;;21.67;54.60;101816.91;5091900;28;20055;-76
2023/06/27 09:12:54;;;;;;;3.05;0.82;;;;;;;21.81;54.54;101827.25;5095435;28;20400;-75
2023/06/27 09:15:20;;;;;;;1.95;0.93;;;;;;;21.65;51.49;101819.38;5091916;28;20016;-75
2023/06/27 09:17:46;;;;;;;6.78;1.00;;;;;;;21.97;54.58;101823.72;5092694;28;20042;-76
2023/06/27 09:20:16;;;;;;;4.35;1.15;;;;;;;22.06;53.63;101817.47;5089290;28;20052;-75
2023/06/27 09:22:42;;;;;;;3.00;0.70;;;;;;;22.18;54.65;101821.69;5091777;28;20028;-75
2023/06/27 09:25:12;;;;;;;2.20;1.15;;;;;;;22.12;56.42;101816.50;5088822;28;20038;-75
2023/06/27 09:27:38;;;;;;;4.53;1.00;;;;;;;22.16;55.26;101832.75;5090265;28;20032;-75
2023/06/27 09:30:05;;;;;;;1.80;1.00;;;;;;;22.18;54.16;101833.09;5093981;28;20039;-76
2023/06/27 09:32:30;;;;;;;2.70;0.90;;;;;;;22.25;54.75;101828.13;5088645;28;20544;-75
2023/06/27 09:34:59;;;;;;;2.83;1.30;;;;;;;22.16;52.93;101842.13;5087826;28;20031;-76
2023/06/27 09:37:31;;;;;;;3.03;1.00;;;;;;;22.13;52.44;101831.56;5096244;28;20035;-75
2023/06/27 09:39:57;;;;;;;1.80;0.80;;;;;;;22.23;53.69;101826.94;5093674;28;20542;-76
2023/06/27 09:42:22;;;;;;;4.00;1.42;;;;;;;22.13;52.74;101835.22;5089739;28;20111;-75
2023/06/27 09:44:47;;;;;;;2.97;0.90;;;;;;;22.19;53.13;101826.97;5093889;28;20032;-75
2023/06/27 09:47:13;;;;;;;2.42;1.00;;;;;;;22.20;53.28;101820.03;5090887;28;20036;-75
2023/06/27 09:49:41;;;;;;;1.48;1.02;;;;;;;22.48;53.41;101824.41;5094508;28;20537;-75
2023/06/27 09:52:08;;;;;;;2.95;1.00;;;;;;;22.69;53.01;101839.50;5095405;28;20035;-75
2023/06/27 09:54:42;;;;;;;6.82;1.58;;;;;;;22.74;50.99;101831.19;5091178;28;20033;-75
2023/06/27 09:57:16;;;;;;;1.98;1.23;;;;;;;22.71;53.35;101831.28;5079698;28;20047;-76
2023/06/27 09:59:42;;;;;;;2.70;1.00;;;;;;;22.82;52.88;101823.28;5096238;28;20483;-76
2023/06/27 10:02:12;;;;;;;1.45;0.60;;;;;;;22.91;51.22;101829.19;5085536;28;20024;-76
2023/06/27 10:04:37;;;;;;;2.70;0.70;;;;;;;22.84;50.20;101832.22;5092876;28;20492;-75
2023/06/27 10:07:03;;;;;;;4.13;1.15;;;;;;;22.90;51.50;101827.59;5086786;28;20020;-75
2023/06/27 10:09:29;;;;;;;5.45;1.02;;;;;;;22.76;50.62;101822.19;5090108;28;20114;-75
2023/06/27 10:11:55;;;;;;;1.95;0.88;;;;;;;22.66;49.85;101834.66;5094233;28;20024;-75
2023/06/27 10:14:21;;;;;;;4.55;1.00;;;;;;;22.89;49.60;101834.53;5093647;28;20031;-75
2023/06/27 10:16:47;;;;;;;1.58;0.90;;;;;;;22.82;49.49;101826.16;5094249;28;20040;-76
2023/06/27 10:19:13;;;;;;;3.30;1.05;;;;;;;22.18;49.25;101833.09;5094623;28;20479;-76
2023/06/27 10:21:39;;;;;;;1.88;0.82;;;;;;;22.85;49.14;101831.00;5092980;28;20496;-75
2023/06/27 10:24:06;;;;;;;2.15;1.00;;;;;;;23.12;48.00;101819.38;5087182;28;20023;-76
2023/06/27 10:26:32;;;;;;;2.22;1.10;;;;;;;23.13;49.73;101823.06;5075224;28;20400;-75
2023/06/27 10:28:58;;;;;;;1.02;0.75;;;;;;;22.87;49.52;101822.75;5085061;28;20024;-75
2023/06/27 10:31:39;;;;;;;4.55;0.80;;;;;;;22.89;49.61;101828.03;5096667;28;20023;-76
2023/06/27 10:34:05;;;;;;;2.22;1.00;;;;;;;22.73;50.41;101828.81;5092796;28;20089;-76
2023/06/27 10:36:51;;;;;;;4.80;1.33;;;;;;;23.20;49.70;101822.91;5079340;28;20032;-75
2023/06/27 10:39:35;;;;;;;1.73;0.70;;;;;;;23.53;50.02;101823.75;5100266;28;20758;-76
2023/06/27 10:42:02;;;;;;;1.70;0.75;;;;;;;23.63;49.02;101823.91;5084046;28;20549;-76
2023/06/27 10:44:28;;;;;;;5.03;0.85;;;;;;;23.70;49.02;101833.13;5097070;28;20020;-76
2023/06/27 10:47:15;;;;;;;4.75;1.20;;;;;;;23.34;49.97;101822.56;5096444;28;20092;-77
2023/06/27 10:49:45;;;;;;;3.92;1.55;;;;;;;23.74;49.04;101836.69;5102411;28;20036;-76
2023/06/27 10:52:19;;;;;;;4.97;1.23;;;;;;;23.51;47.54;101829.09;5098234;28;20509;-76
2023/06/27 10:54:44;;;;;;;7.30;1.23;;;;;;;23.52;47.83;101821.31;5103436;28;20020;-76
2023/06/27 10:57:15;;;;;;;3.90;1.00;;;;;;;23.53;49.05;101837.22;5102917;28;20482;-76
2023/06/27 10:59:45;;;;;;;2.05;1.00;;;;;;;23.21;47.62;101824.53;5091930;28;20069;-76
2023/06/27 11:02:11;;;;;;;1.10;0.88;;;;;;;23.73;51.59;101831.41;5096489;28;20521;-78
2023/06/27 11:04:41;;;;;;;0.90;0.77;;;;;;;24.06;49.03;101831.44;5099566;28;20027;-78
2023/06/27 11:07:08;;;;;;;3.63;1.23;;;;;;;24.36;48.48;101835.91;5094510;28;20020;-77
2023/06/27 11:09:36;;;;;;;2.05;1.25;;;;;;;23.83;47.86;101838.16;5101816;28;20051;-78
2023/06/27 11:12:14;;;;;;;3.88;1.20;;;;;;;23.34;47.33;101834.00;5097367;28;20503;-77
2023/06/27 11:14:44;;;;;;;2.72;0.80;;;;;;;23.74;48.66;101839.56;5098996;28;20024;-80
2023/06/27 11:17:11;;;;;;;5.30;1.10;;;;;;;24.12;48.60;101846.78;5100922;28;20024;-78
2023/06/27 11:19:38;;;;;;;2.83;1.88;;;;;;;24.12;46.54;101855.38;5099761;28;20140;-77
2023/06/27 11:22:04;;;;;;;4.47;1.45;;;;;;;23.88;47.35;101851.91;5101088;28;20020;-78